East Blacksea — T2ZH3 — position and weather

sailwx.info

Track history (hours):
 
Tides and Currents Weather Stations Pressure Air Temp Water Temp Dewpoint Dewpoint Depression Visibility Wind Speed Wind Dir Waves Ship Positions

East Blacksea

Last reported at 2017-Jul-22 03:57 UTC. Time now 2017-Jul-22 14:56 UTC.
Position N 38°44' E 000°26'.

Length 69 m; draft 2.9 m.

Type: Cargo ship. MMSI: 572341210.

Date/timePositionNaut miles runAvg speedWind from/ knotsBaromVisibWave heightAir tempDewpointWater temp
2017-Jul-22 03:57N 38°44' E 000°26'3 7.3
2017-Jul-22 03:30N 38°41' E 000°26'10 8.0
2017-Jul-22 02:17N 38°33' E 000°19'2 7.7
2017-Jul-22 02:00N 38°31' E 000°18'4 7.6
2017-Jul-22 01:30N 38°28' E 000°15'4 7.6
2017-Jul-22 01:00N 38°25' E 000°12'4 7.6
2017-Jul-22 00:30N 38°22' E 000°10'4 7.7
2017-Jul-22 00:00N 38°18' E 000°07'9 7.7
2017-Jul-21 22:52N 38°11' E 000°01'4 7.8
2017-Jul-21 22:19N 38°07' W 000°02'  
2017-Jul-18 14:49N 32°26' W 009°25'84 6.3
2017-Jul-18 01:27N 31°14' W 010°16'4 5.6
2017-Jul-18 00:40N 31°11' W 010°19'116 5.6
2017-Jul-17 03:54N 29°38' W 011°40'2 6.0
2017-Jul-17 03:30N 29°36' W 011°41'3 6.0
2017-Jul-17 02:57N 29°34' W 011°44'3 6.0
2017-Jul-17 02:28N 29°32' W 011°46'3 6.0
2017-Jul-17 01:53N 29°29' W 011°49'3 5.7
2017-Jul-17 01:26N 29°27' W 011°51'3 5.6
2017-Jul-17 00:55N 29°25' W 011°53'2 5.9
2017-Jul-17 00:30N 29°23' W 011°55'3 5.9
2017-Jul-17 00:00N 29°21' W 011°57'3 5.7
2017-Jul-16 23:29N 29°19' W 011°60'3 5.8
2017-Jul-16 23:00N 29°17' W 012°02'3 5.6
2017-Jul-16 22:30N 29°15' W 012°04'3 5.6
2017-Jul-16 22:00N 29°13' W 012°06'3 5.5
2017-Jul-16 21:30N 29°11' W 012°08'3 5.8
2017-Jul-16 21:00N 29°08' W 012°10'3 5.6
2017-Jul-16 20:30N 29°06' W 012°11'3 5.7
2017-Jul-16 19:55N 29°03' W 012°14'3 5.5
2017-Jul-16 19:19N 29°01' W 012°16'2 5.7
2017-Jul-16 18:54N 28°59' W 012°18'2 5.9
2017-Jul-16 18:29N 28°57' W 012°20'3 5.8
2017-Jul-16 17:59N 28°54' W 012°22'3 5.9
2017-Jul-16 17:30N 28°52' W 012°24'3 6.0
2017-Jul-16 17:00N 28°50' W 012°26'3 6.0
2017-Jul-16 16:29N 28°47' W 012°27'3 6.0
2017-Jul-16 16:00N 28°45' W 012°29'3 5.9
2017-Jul-16 15:30N 28°42' W 012°31'3 5.9
2017-Jul-16 14:57N 28°40' W 012°33'3 5.8
2017-Jul-16 14:30N 28°38' W 012°35'3 5.8
2017-Jul-16 13:59N 28°35' W 012°38'3 6.1
2017-Jul-16 13:30N 28°33' W 012°40'4 6.1
2017-Jul-16 12:49N 28°30' W 012°42'2 6.2
2017-Jul-16 12:26N 28°28' W 012°44'3 6.2
2017-Jul-16 12:00N 28°26' W 012°46'5 6.2
2017-Jul-16 11:16N 28°22' W 012°49'2 6.3
2017-Jul-16 11:00N 28°21' W 012°51'3 6.4
2017-Jul-16 10:30N 28°19' W 012°53'3 6.3
2017-Jul-16 10:00N 28°16' W 012°55'9 6.3
2017-Jul-16 08:33N 28°09' W 013°02'1 6.4
2017-Jul-16 08:21N 28°08' W 013°03'3 6.0
2017-Jul-16 07:52N 28°06' W 013°05'3 6.4
2017-Jul-16 07:28N 28°04' W 013°06'3 6.5
2017-Jul-16 06:58N 28°01' W 013°09'3 6.4
2017-Jul-16 06:30N 27°59' W 013°11'3 6.4
2017-Jul-16 06:00N 27°56' W 013°13'3 6.4
2017-Jul-16 05:30N 27°53' W 013°15'3 6.6
2017-Jul-16 05:00N 27°51' W 013°17'3 6.6
2017-Jul-16 04:30N 27°48' W 013°19'3 6.8
2017-Jul-16 04:00N 27°45' W 013°21'3 6.8
2017-Jul-16 03:30N 27°43' W 013°24'3 6.5
2017-Jul-16 03:00N 27°40' W 013°26'3 6.3
2017-Jul-16 02:30N 27°38' W 013°28'7 6.2
2017-Jul-16 01:18N 27°32' W 013°33'14 6.2
2017-Jul-15 23:05N 27°20' W 013°42'1 6.5
2017-Jul-15 23:00N 27°20' W 013°42'10 6.8
2017-Jul-15 21:29N 27°11' W 013°49'4 7.0
2017-Jul-15 20:58N 27°08' W 013°51'4 6.8
2017-Jul-15 20:23N 27°05' W 013°53'  
Track history (hours):
 
Tides and Currents Weather Stations Pressure Air Temp Water Temp Dewpoint Dewpoint Depression Visibility Wind Speed Wind Dir Waves Ship Positions

East Blacksea

Last reported at 2017-Jul-22 03:57 UTC. Time now 2017-Jul-22 14:56 UTC.
Position N 38°44' E 000°26'.

Length 69 m; draft 2.9 m.

Type: Cargo ship. MMSI: 572341210.

Date/timePositionNaut miles runAvg speedWind from/ knotsBaromVisibWave heightAir tempDewpointWater temp
2017-Jul-22 03:57N 38°44' E 000°26'3 7.3
2017-Jul-22 03:30N 38°41' E 000°26'10 8.0
2017-Jul-22 02:17N 38°33' E 000°19'2 7.7
2017-Jul-22 02:00N 38°31' E 000°18'4 7.6
2017-Jul-22 01:30N 38°28' E 000°15'4 7.6
2017-Jul-22 01:00N 38°25' E 000°12'4 7.6
2017-Jul-22 00:30N 38°22' E 000°10'4 7.7
2017-Jul-22 00:00N 38°18' E 000°07'9 7.7
2017-Jul-21 22:52N 38°11' E 000°01'4 7.8
2017-Jul-21 22:19N 38°07' W 000°02'  
2017-Jul-18 14:49N 32°26' W 009°25'84 6.3
2017-Jul-18 01:27N 31°14' W 010°16'4 5.6
2017-Jul-18 00:40N 31°11' W 010°19'116 5.6
2017-Jul-17 03:54N 29°38' W 011°40'2 6.0
2017-Jul-17 03:30N 29°36' W 011°41'3 6.0
2017-Jul-17 02:57N 29°34' W 011°44'3 6.0
2017-Jul-17 02:28N 29°32' W 011°46'3 6.0
2017-Jul-17 01:53N 29°29' W 011°49'3 5.7
2017-Jul-17 01:26N 29°27' W 011°51'3 5.6
2017-Jul-17 00:55N 29°25' W 011°53'2 5.9
2017-Jul-17 00:30N 29°23' W 011°55'3 5.9
2017-Jul-17 00:00N 29°21' W 011°57'3 5.7
2017-Jul-16 23:29N 29°19' W 011°60'3 5.8
2017-Jul-16 23:00N 29°17' W 012°02'3 5.6
2017-Jul-16 22:30N 29°15' W 012°04'3 5.6
2017-Jul-16 22:00N 29°13' W 012°06'3 5.5
2017-Jul-16 21:30N 29°11' W 012°08'3 5.8
2017-Jul-16 21:00N 29°08' W 012°10'3 5.6
2017-Jul-16 20:30N 29°06' W 012°11'3 5.7
2017-Jul-16 19:55N 29°03' W 012°14'3 5.5
2017-Jul-16 19:19N 29°01' W 012°16'2 5.7
2017-Jul-16 18:54N 28°59' W 012°18'2 5.9
2017-Jul-16 18:29N 28°57' W 012°20'3 5.8
2017-Jul-16 17:59N 28°54' W 012°22'3 5.9
2017-Jul-16 17:30N 28°52' W 012°24'3 6.0
2017-Jul-16 17:00N 28°50' W 012°26'3 6.0
2017-Jul-16 16:29N 28°47' W 012°27'3 6.0
2017-Jul-16 16:00N 28°45' W 012°29'3 5.9
2017-Jul-16 15:30N 28°42' W 012°31'3 5.9
2017-Jul-16 14:57N 28°40' W 012°33'3 5.8
2017-Jul-16 14:30N 28°38' W 012°35'3 5.8
2017-Jul-16 13:59N 28°35' W 012°38'3 6.1
2017-Jul-16 13:30N 28°33' W 012°40'4 6.1
2017-Jul-16 12:49N 28°30' W 012°42'2 6.2
2017-Jul-16 12:26N 28°28' W 012°44'3 6.2
2017-Jul-16 12:00N 28°26' W 012°46'5 6.2
2017-Jul-16 11:16N 28°22' W 012°49'2 6.3
2017-Jul-16 11:00N 28°21' W 012°51'3 6.4
2017-Jul-16 10:30N 28°19' W 012°53'3 6.3
2017-Jul-16 10:00N 28°16' W 012°55'9 6.3
2017-Jul-16 08:33N 28°09' W 013°02'1 6.4
2017-Jul-16 08:21N 28°08' W 013°03'3 6.0
2017-Jul-16 07:52N 28°06' W 013°05'3 6.4
2017-Jul-16 07:28N 28°04' W 013°06'3 6.5
2017-Jul-16 06:58N 28°01' W 013°09'3 6.4
2017-Jul-16 06:30N 27°59' W 013°11'3 6.4
2017-Jul-16 06:00N 27°56' W 013°13'3 6.4
2017-Jul-16 05:30N 27°53' W 013°15'3 6.6
2017-Jul-16 05:00N 27°51' W 013°17'3 6.6
2017-Jul-16 04:30N 27°48' W 013°19'3 6.8
2017-Jul-16 04:00N 27°45' W 013°21'3 6.8
2017-Jul-16 03:30N 27°43' W 013°24'3 6.5
2017-Jul-16 03:00N 27°40' W 013°26'3 6.3
2017-Jul-16 02:30N 27°38' W 013°28'7 6.2
2017-Jul-16 01:18N 27°32' W 013°33'14 6.2
2017-Jul-15 23:05N 27°20' W 013°42'1 6.5
2017-Jul-15 23:00N 27°20' W 013°42'10 6.8
2017-Jul-15 21:29N 27°11' W 013°49'4 7.0
2017-Jul-15 20:58N 27°08' W 013°51'4 6.8
2017-Jul-15 20:23N 27°05' W 013°53'  

Dump ship's entire track history